Time;durP1;ratioP1;P1;durP2;ratioP2;P2;SDS_P1;SDS_P2;PMS_P1;PMS_P2;Temp;Humidity;BMP_temperature;BMP_pressure;BME280_temperature;BME280_humidity;BME280_pressure;Samples;Min_cycle;Max_cycle;Signal;HPM_P1;HPM_P2
2021/03/13 00:01:27;;;;;;;0.90;0.90;;;;;;;3.43;95.09;97293.84;5018159;28;20219;-68
2021/03/13 00:03:55;;;;;;;1.03;1.03;;;;;;;3.40;95.27;97288.03;5017957;28;20197;-69
2021/03/13 00:06:22;;;;;;;1.03;0.83;;;;;;;3.44;94.41;97281.59;5011528;28;20208;-68
2021/03/13 00:08:49;;;;;;;2.40;2.03;;;;;;;3.45;93.83;97278.81;5014865;28;20597;-68
2021/03/13 00:11:16;;;;;;;1.40;1.13;;;;;;;3.46;93.69;97277.84;5021017;28;20204;-68
2021/03/13 00:13:43;;;;;;;0.83;0.83;;;;;;;3.51;92.71;97287.09;5012868;28;20708;-69
2021/03/13 00:16:11;;;;;;;2.07;1.87;;;;;;;3.52;92.93;97280.88;5010490;28;20209;-68
2021/03/13 00:18:39;;;;;;;2.30;1.43;;;;;;;3.48;93.75;97290.84;5012553;28;20252;-68
2021/03/13 00:21:06;;;;;;;0.80;0.80;;;;;;;3.56;90.71;97293.59;5010771;28;20220;-68
2021/03/13 00:23:33;;;;;;;1.70;1.17;;;;;;;3.58;91.30;97288.19;5014590;28;20498;-68
2021/03/13 00:26:01;;;;;;;1.00;1.00;;;;;;;3.62;90.87;97284.38;5015632;28;20209;-67
2021/03/13 00:28:28;;;;;;;0.90;0.90;;;;;;;3.65;91.22;97281.47;5008620;28;20328;-68
2021/03/13 00:30:55;;;;;;;1.03;1.03;;;;;;;3.69;91.24;97277.59;5016949;28;20223;-68
2021/03/13 00:33:25;;;;;;;2.60;1.07;;;;;;;3.71;90.59;97283.53;5014769;28;20735;-69
2021/03/13 00:35:53;;;;;;;0.70;0.70;;;;;;;3.70;90.78;97287.13;5013360;28;20211;-67
2021/03/13 00:38:21;;;;;;;1.63;1.00;;;;;;;3.74;91.04;97296.34;5014514;28;20225;-68
2021/03/13 00:40:49;;;;;;;2.30;2.03;;;;;;;3.74;90.30;97304.22;5016006;28;20208;-68
2021/03/13 00:43:16;;;;;;;4.57;2.23;;;;;;;3.78;90.99;97296.88;5014129;28;20572;-68
2021/03/13 00:45:44;;;;;;;1.43;1.10;;;;;;;3.70;92.60;97302.00;5019424;28;20823;-67
2021/03/13 00:48:11;;;;;;;2.43;1.23;;;;;;;3.63;93.98;97301.75;5003781;28;20232;-68
2021/03/13 00:50:41;;;;;;;1.00;1.00;;;;;;;3.58;94.18;97289.03;5011397;28;20215;-68
2021/03/13 00:53:10;;;;;;;1.70;1.17;;;;;;;3.56;94.67;97284.88;5017971;28;20655;-69
2021/03/13 00:55:37;;;;;;;3.50;0.73;;;;;;;3.55;93.67;97275.38;5009648;28;20672;-69
2021/03/13 00:58:04;;;;;;;1.37;0.83;;;;;;;3.56;93.54;97277.88;5015909;28;20231;-68
2021/03/13 01:00:37;;;;;;;0.97;0.93;;;;;;;3.56;92.46;97280.50;5013724;28;20205;-69
2021/03/13 01:03:05;;;;;;;1.07;1.07;;;;;;;3.52;93.35;97280.88;5015878;28;20201;-67
2021/03/13 01:05:33;;;;;;;0.80;0.80;;;;;;;3.58;93.00;97265.47;5011785;28;20204;-68
2021/03/13 01:08:00;;;;;;;1.47;1.20;;;;;;;3.57;92.14;97261.19;5022233;28;20669;-67
2021/03/13 01:10:47;;;;;;;1.33;0.90;;;;;;;3.61;92.02;97267.00;5013586;28;20209;-68
2021/03/13 01:13:14;;;;;;;1.20;1.10;;;;;;;3.68;91.70;97267.25;5016401;28;20251;-69
2021/03/13 01:15:42;;;;;;;3.13;1.13;;;;;;;3.70;90.64;97257.44;4964679;28;20528;-68
2021/03/13 01:18:09;;;;;;;1.00;1.00;;;;;;;3.69;90.96;97259.25;5014945;28;20224;-68
2021/03/13 01:20:37;;;;;;;0.80;0.80;;;;;;;3.67;90.82;97253.34;5015072;28;20281;-68
2021/03/13 01:23:04;;;;;;;2.93;1.00;;;;;;;3.71;90.38;97254.69;5014654;28;20207;-68
2021/03/13 01:25:31;;;;;;;1.50;1.10;;;;;;;3.68;90.91;97241.03;5011632;28;20504;-68
2021/03/13 01:27:59;;;;;;;1.30;1.30;;;;;;;3.73;90.87;97250.16;5012230;28;20225;-68
2021/03/13 01:30:26;;;;;;;0.73;0.73;;;;;;;3.73;90.52;97241.44;5017393;28;20593;-68
2021/03/13 01:32:53;;;;;;;1.87;0.87;;;;;;;3.73;90.78;97238.81;5014433;28;20209;-68
2021/03/13 01:35:21;;;;;;;0.90;0.80;;;;;;;3.82;90.41;97239.78;5015355;28;20223;-68
2021/03/13 01:37:48;;;;;;;0.83;0.80;;;;;;;3.75;90.46;97232.50;5012036;28;20278;-68
2021/03/13 01:40:16;;;;;;;1.10;1.00;;;;;;;3.76;90.78;97239.38;5019850;28;20314;-68
2021/03/13 01:42:43;;;;;;;0.70;0.70;;;;;;;3.86;90.02;97238.53;5013681;28;20633;-68
2021/03/13 01:45:12;;;;;;;0.90;0.90;;;;;;;3.83;90.31;97234.44;5008601;28;20200;-68
2021/03/13 01:47:40;;;;;;;0.80;0.80;;;;;;;3.81;90.74;97230.28;5013659;28;20232;-68
2021/03/13 01:50:09;;;;;;;0.93;0.93;;;;;;;3.81;92.68;97240.75;5015087;28;20300;-68
2021/03/13 01:52:38;;;;;;;0.70;0.70;;;;;;;3.71;93.63;97230.28;5013068;28;20205;-68
2021/03/13 01:55:07;;;;;;;0.77;0.77;;;;;;;3.60;95.58;97224.22;5015267;28;20232;-67
2021/03/13 01:57:34;;;;;;;0.80;0.80;;;;;;;3.58;97.36;97226.16;5016184;28;20236;-68
2021/03/13 02:00:01;;;;;;;1.03;0.80;;;;;;;3.54;98.80;97231.81;5018535;28;20715;-68
2021/03/13 02:02:29;;;;;;;0.90;0.90;;;;;;;3.57;99.29;97239.38;5016931;28;20212;-68
2021/03/13 02:04:56;;;;;;;1.10;1.00;;;;;;;3.45;99.91;97238.72;5011066;28;20206;-68
2021/03/13 02:07:25;;;;;;;0.87;0.87;;;;;;;3.40;100.00;97226.03;5017899;28;20228;-69
2021/03/13 02:10:01;;;;;;;1.17;1.07;;;;;;;3.33;100.00;97224.91;5014254;28;20205;-68
2021/03/13 02:12:38;;;;;;;1.30;1.03;;;;;;;3.31;100.00;97222.44;5010640;28;20196;-69
2021/03/13 02:15:09;;;;;;;1.20;1.20;;;;;;;3.28;100.00;97220.09;5009799;28;20762;-68
2021/03/13 02:17:43;;;;;;;1.77;1.67;;;;;;;3.22;100.00;97218.00;5015126;28;20220;-68
2021/03/13 02:20:49;;;;;;;1.00;0.87;;;;;;;3.16;100.00;97222.00;5013707;28;20207;-69
2021/03/13 02:23:19;;;;;;;1.20;1.20;;;;;;;3.16;100.00;97211.53;5010939;28;20541;-69
2021/03/13 02:25:55;;;;;;;0.77;0.77;;;;;;;3.13;100.00;97211.81;5012718;28;20223;-68
2021/03/13 02:28:25;;;;;;;1.37;1.27;;;;;;;3.14;100.00;97210.84;5017765;28;20231;-69
2021/03/13 02:30:54;;;;;;;1.80;1.70;;;;;;;3.09;100.00;97205.19;5013994;28;20204;-68
2021/03/13 02:33:25;;;;;;;2.57;1.70;;;;;;;3.12;100.00;97201.47;5012305;28;20235;-69
2021/03/13 02:35:56;;;;;;;1.30;1.20;;;;;;;3.06;100.00;97195.00;5016635;28;20214;-67
2021/03/13 02:38:27;;;;;;;1.20;1.10;;;;;;;3.02;100.00;97191.00;5016294;28;20311;-69
2021/03/13 02:40:55;;;;;;;1.47;1.37;;;;;;;3.04;100.00;97194.28;5014703;28;20208;-69
2021/03/13 02:43:23;;;;;;;1.60;1.50;;;;;;;3.01;100.00;97184.91;5013478;28;20196;-69
2021/03/13 02:45:56;;;;;;;1.53;1.43;;;;;;;3.07;100.00;97182.75;5014781;28;20248;-68
2021/03/13 02:48:23;;;;;;;1.03;1.03;;;;;;;3.04;100.00;97187.28;5008668;28;20229;-69
2021/03/13 02:50:52;;;;;;;1.17;1.17;;;;;;;3.02;100.00;97185.75;5011831;28;20235;-67
2021/03/13 02:53:20;;;;;;;1.30;1.20;;;;;;;2.97;100.00;97183.53;5018036;28;20218;-69
2021/03/13 02:55:48;;;;;;;0.80;0.80;;;;;;;3.04;100.00;97176.81;5019406;28;20208;-68
2021/03/13 02:58:16;;;;;;;1.57;1.20;;;;;;;3.15;100.00;97175.84;5016926;28;20510;-68
2021/03/13 03:00:43;;;;;;;1.00;1.00;;;;;;;3.16;100.00;97176.69;5017968;28;20209;-69
2021/03/13 03:03:11;;;;;;;1.30;1.30;;;;;;;3.04;100.00;97175.97;5016547;28;20580;-68
2021/03/13 03:05:39;;;;;;;1.57;1.47;;;;;;;3.11;100.00;97165.78;5017553;28;20208;-69
2021/03/13 03:08:08;;;;;;;0.90;0.90;;;;;;;3.22;100.00;97170.88;5016691;28;20402;-69
2021/03/13 03:10:37;;;;;;;0.87;0.87;;;;;;;3.19;100.00;97176.41;5015177;28;20209;-69
2021/03/13 03:13:07;;;;;;;1.13;1.13;;;;;;;3.12;100.00;97165.63;5020610;28;20205;-69
2021/03/13 03:15:34;;;;;;;1.20;1.10;;;;;;;3.12;100.00;97160.41;5013033;28;20292;-69
2021/03/13 03:18:03;;;;;;;1.10;1.10;;;;;;;3.10;100.00;97164.13;5017424;28;20220;-67
2021/03/13 03:20:33;;;;;;;0.97;0.83;;;;;;;3.10;100.00;97157.09;5016272;28;20731;-69
2021/03/13 03:23:00;;;;;;;1.10;1.10;;;;;;;3.03;100.00;97159.44;5014870;28;20723;-67
2021/03/13 03:25:27;;;;;;;1.37;1.10;;;;;;;3.11;100.00;97148.28;5016610;28;20296;-69
2021/03/13 03:27:54;;;;;;;1.00;1.00;;;;;;;3.13;100.00;97151.56;5016838;28;20224;-69
2021/03/13 03:30:25;;;;;;;1.33;1.33;;;;;;;3.08;100.00;97147.75;5018274;28;20219;-68
2021/03/13 03:32:52;;;;;;;1.27;1.10;;;;;;;3.16;100.00;97135.59;5020724;28;20279;-69
2021/03/13 03:35:20;;;;;;;0.97;0.97;;;;;;;3.13;100.00;97128.00;5019598;28;20232;-69
2021/03/13 03:37:49;;;;;;;1.10;1.10;;;;;;;3.21;100.00;97129.94;5015355;28;20243;-69
2021/03/13 03:40:17;;;;;;;0.90;0.90;;;;;;;3.12;100.00;97123.75;5019513;28;20200;-68
2021/03/13 03:42:48;;;;;;;1.30;1.20;;;;;;;3.07;100.00;97123.34;5017292;28;20236;-68
2021/03/13 03:45:17;;;;;;;1.40;1.30;;;;;;;3.04;100.00;97113.16;5010696;28;20220;-69
2021/03/13 03:47:45;;;;;;;1.30;1.30;;;;;;;2.93;100.00;97114.09;5017825;28;20227;-69
2021/03/13 03:50:14;;;;;;;1.77;1.40;;;;;;;2.94;100.00;97105.28;5017522;28;20282;-68
2021/03/13 03:52:42;;;;;;;1.20;1.20;;;;;;;2.99;100.00;97103.06;5016635;28;20222;-68
2021/03/13 03:55:12;;;;;;;1.40;1.30;;;;;;;3.05;100.00;97096.47;5015008;28;20237;-69
2021/03/13 03:57:40;;;;;;;1.00;1.00;;;;;;;3.03;100.00;97095.78;5019038;28;20236;-69
2021/03/13 04:00:09;;;;;;;1.57;1.57;;;;;;;3.12;100.00;97092.31;5014713;28;20200;-68
2021/03/13 04:02:57;;;;;;;1.30;1.20;;;;;;;3.13;100.00;97087.94;5010666;28;20204;-68
2021/03/13 04:05:25;;;;;;;1.50;1.40;;;;;;;3.17;100.00;97078.84;5006031;28;20278;-68
2021/03/13 04:07:52;;;;;;;1.30;1.30;;;;;;;3.15;100.00;97075.53;5015211;28;20240;-68
2021/03/13 04:10:22;;;;;;;1.30;1.20;;;;;;;3.13;100.00;97078.28;5017567;28;20913;-68
2021/03/13 04:12:49;;;;;;;1.37;1.27;;;;;;;3.15;100.00;97071.09;5021627;28;20213;-69
2021/03/13 04:15:18;;;;;;;1.40;1.27;;;;;;;3.18;100.00;97070.81;5010797;28;20229;-69
2021/03/13 04:17:46;;;;;;;1.40;1.30;;;;;;;3.15;100.00;97063.25;5018856;28;20235;-69
2021/03/13 04:20:14;;;;;;;2.10;1.60;;;;;;;3.24;100.00;97068.63;5010037;28;20228;-68
2021/03/13 04:22:41;;;;;;;2.10;1.37;;;;;;;3.24;100.00;97066.00;5015026;28;20212;-68
2021/03/13 04:25:08;;;;;;;1.53;1.47;;;;;;;3.32;100.00;97050.41;5015474;28;20739;-68
2021/03/13 04:27:44;;;;;;;1.47;1.33;;;;;;;3.29;100.00;97062.00;5016392;28;20227;-69
2021/03/13 04:30:15;;;;;;;1.20;1.10;;;;;;;3.42;100.00;97053.03;5013051;28;20204;-69
2021/03/13 04:32:43;;;;;;;1.03;1.03;;;;;;;3.38;100.00;97054.25;5014346;28;20219;-69
2021/03/13 04:35:11;;;;;;;1.87;1.63;;;;;;;3.41;100.00;97052.19;5016055;28;20315;-69
2021/03/13 04:37:39;;;;;;;3.07;1.27;;;;;;;3.38;100.00;97047.22;5014153;28;20744;-69
2021/03/13 04:40:08;;;;;;;1.30;1.30;;;;;;;3.42;100.00;97045.16;5012902;28;20292;-69
2021/03/13 04:42:37;;;;;;;1.30;1.30;;;;;;;3.33;100.00;97038.97;5009427;28;20577;-69
2021/03/13 04:45:06;;;;;;;1.63;1.40;;;;;;;3.35;100.00;97033.59;5010512;28;20205;-68
2021/03/13 04:47:33;;;;;;;1.80;1.63;;;;;;;3.44;100.00;97025.69;5009533;28;20220;-69
2021/03/13 04:50:00;;;;;;;1.13;1.13;;;;;;;3.53;100.00;97026.66;5009496;28;20237;-67
2021/03/13 04:52:28;;;;;;;1.73;1.63;;;;;;;3.39;100.00;97029.72;5013094;28;20213;-69
2021/03/13 04:54:55;;;;;;;1.70;1.50;;;;;;;3.40;100.00;97011.25;5006751;28;20221;-68
2021/03/13 04:57:22;;;;;;;2.10;1.80;;;;;;;3.37;100.00;97022.00;5015361;28;20607;-68
2021/03/13 04:59:51;;;;;;;1.33;1.33;;;;;;;3.37;100.00;97023.78;5014078;28;20686;-66
2021/03/13 05:02:19;;;;;;;1.57;1.37;;;;;;;3.25;100.00;97023.16;5010709;28;20274;-68
2021/03/13 05:04:46;;;;;;;1.53;1.50;;;;;;;3.26;100.00;97014.31;5007711;28;21009;-68
2021/03/13 05:07:14;;;;;;;1.30;1.13;;;;;;;3.29;100.00;97007.00;5015617;28;20716;-68
2021/03/13 05:09:41;;;;;;;1.53;1.43;;;;;;;3.28;100.00;97009.78;5001929;28;20219;-68
2021/03/13 05:12:09;;;;;;;1.67;1.53;;;;;;;3.33;100.00;97002.31;5007970;28;20475;-69
2021/03/13 05:14:36;;;;;;;4.17;1.60;;;;;;;3.34;100.00;96996.09;5009910;28;20729;-68
2021/03/13 05:17:04;;;;;;;2.67;1.40;;;;;;;3.42;100.00;97001.44;5013228;28;20221;-67
2021/03/13 05:19:32;;;;;;;2.90;2.13;;;;;;;3.47;99.17;97001.84;5004862;28;20209;-67
2021/03/13 05:21:59;;;;;;;1.27;1.17;;;;;;;3.61;98.06;97005.78;5008363;28;20325;-68
2021/03/13 05:24:26;;;;;;;1.57;1.20;;;;;;;3.67;97.90;97003.56;5007971;28;20196;-68
2021/03/13 05:26:53;;;;;;;2.13;1.50;;;;;;;3.68;96.85;97007.81;5007705;28;20208;-67
2021/03/13 05:29:20;;;;;;;3.50;1.40;;;;;;;3.80;95.14;97011.09;5009624;28;20838;-68
2021/03/13 05:31:47;;;;;;;3.20;1.30;;;;;;;3.78;95.66;97007.78;5018565;28;20213;-68
2021/03/13 05:34:15;;;;;;;3.23;1.90;;;;;;;3.79;95.48;96993.72;5014409;28;20728;-68
2021/03/13 05:36:42;;;;;;;1.57;1.40;;;;;;;3.86;94.13;96981.66;5010270;28;20216;-68
2021/03/13 05:39:09;;;;;;;2.43;1.73;;;;;;;3.92;92.76;96983.69;5014154;28;20228;-67
2021/03/13 05:41:36;;;;;;;1.17;1.10;;;;;;;3.90;92.83;96977.78;5010987;28;20204;-68
2021/03/13 05:44:05;;;;;;;1.47;1.37;;;;;;;3.87;92.85;96980.69;5014172;28;20668;-67
2021/03/13 05:46:36;;;;;;;1.47;1.37;;;;;;;4.00;91.96;96986.44;5006383;28;20212;-68
2021/03/13 05:49:05;;;;;;;2.50;0.97;;;;;;;4.14;89.93;96979.03;5002451;28;20220;-68
2021/03/13 05:51:37;;;;;;;1.90;1.37;;;;;;;4.25;89.94;96983.25;5014974;28;20285;-70
2021/03/13 05:54:06;;;;;;;1.50;1.40;;;;;;;4.25;90.09;96975.38;5018166;28;20333;-69
2021/03/13 05:56:33;;;;;;;1.73;1.47;;;;;;;4.30;89.42;96981.00;5008318;28;20699;-70
2021/03/13 05:59:02;;;;;;;4.13;1.43;;;;;;;4.31;89.30;96978.19;5010942;28;20235;-68
2021/03/13 06:01:30;;;;;;;1.83;1.07;;;;;;;4.38;88.90;96980.25;4981536;28;21507;-69
2021/03/13 06:03:57;;;;;;;2.00;1.00;;;;;;;4.44;87.49;96977.84;4983225;28;20646;-70
2021/03/13 06:06:26;;;;;;;1.93;1.00;;;;;;;4.48;87.92;96983.63;4985177;28;20211;-69
2021/03/13 06:08:54;;;;;;;1.47;1.10;;;;;;;4.47;88.37;96980.16;4989090;28;20221;-69
2021/03/13 06:11:23;;;;;;;3.60;1.50;;;;;;;4.52;88.38;96977.09;5012374;28;20636;-69
2021/03/13 06:13:50;;;;;;;1.93;0.93;;;;;;;4.59;86.74;96969.44;5011015;28;20294;-69
2021/03/13 06:16:17;;;;;;;1.17;0.90;;;;;;;4.64;87.46;96968.00;5002731;28;20674;-68
2021/03/13 06:18:57;;;;;;;1.67;0.80;;;;;;;4.66;86.43;96964.41;5004811;28;20276;-70
2021/03/13 06:21:25;;;;;;;1.53;1.43;;;;;;;4.70;87.60;96961.31;5000439;28;20204;-71
2021/03/13 06:23:58;;;;;;;1.47;1.30;;;;;;;4.77;86.82;96962.34;5008965;28;20456;-70
2021/03/13 06:26:26;;;;;;;2.23;1.40;;;;;;;4.90;85.94;96961.13;5010350;28;20205;-70
2021/03/13 06:28:54;;;;;;;2.17;1.43;;;;;;;4.94;85.48;96962.50;5012155;28;20313;-71
2021/03/13 06:31:25;;;;;;;2.00;1.27;;;;;;;4.94;85.00;96957.25;5016563;28;20374;-71
2021/03/13 06:33:53;;;;;;;2.83;1.40;;;;;;;4.99;nan;96954.13;5015093;28;20291;-71
2021/03/13 06:36:25;;;;;;;1.53;1.40;;;;;;;5.06;84.33;96950.75;5015038;28;20224;-70
2021/03/13 06:38:53;;;;;;;3.17;2.10;;;;;;;5.01;84.29;96954.81;5013711;28;20224;-72
2021/03/13 06:41:23;;;;;;;1.63;1.40;;;;;;;5.07;83.49;96941.88;5016698;28;20208;-71
2021/03/13 06:43:52;;;;;;;3.37;2.23;;;;;;;5.07;83.35;96934.00;5017223;28;20205;-71
2021/03/13 06:46:20;;;;;;;1.30;1.07;;;;;;;5.02;83.90;96936.28;5004278;28;20205;-72
2021/03/13 06:48:51;;;;;;;1.97;1.30;;;;;;;5.28;82.30;96940.69;5013074;28;20240;-71
2021/03/13 06:51:23;;;;;;;1.40;1.30;;;;;;;5.37;81.28;96936.28;5014176;28;20305;-71
2021/03/13 06:54:08;;;;;;;2.43;1.80;;;;;;;5.35;81.92;96933.84;5009553;28;20213;-71
2021/03/13 06:56:37;;;;;;;1.40;1.30;;;;;;;5.47;81.03;96929.09;5006193;28;20200;-71
2021/03/13 06:59:25;;;;;;;1.93;1.50;;;;;;;5.57;80.35;96930.81;5014441;28;20233;-71
2021/03/13 07:02:03;;;;;;;2.50;1.40;;;;;;;5.62;79.96;96907.50;5012872;28;20663;-71
2021/03/13 07:04:35;;;;;;;2.80;1.47;;;;;;;5.61;80.15;96919.81;5012053;28;20201;-70
2021/03/13 07:07:03;;;;;;;2.87;1.93;;;;;;;5.58;80.33;96900.91;5015512;28;20592;-71
2021/03/13 07:09:47;;;;;;;1.90;1.80;;;;;;;5.75;79.10;96914.94;5019722;28;20204;-71
2021/03/13 07:12:27;;;;;;;1.93;1.83;;;;;;;5.82;79.09;96902.78;5013384;28;20527;-71
2021/03/13 07:14:55;;;;;;;1.40;1.30;;;;;;;5.91;77.87;96912.34;5011035;28;20224;-71
2021/03/13 07:17:23;;;;;;;1.00;1.00;;;;;;;5.97;77.32;96912.66;5014876;28;20256;-71
2021/03/13 07:19:51;;;;;;;1.87;1.77;;;;;;;6.04;77.47;96924.22;5012692;28;20476;-70
2021/03/13 07:22:19;;;;;;;4.13;1.50;;;;;;;6.10;76.87;96910.44;5012585;28;20572;-72
2021/03/13 07:24:46;;;;;;;2.77;1.53;;;;;;;6.30;76.26;96897.78;5016228;28;20212;-70
2021/03/13 07:27:16;;;;;;;2.50;1.63;;;;;;;6.61;75.47;96901.56;5006556;28;20390;-71
2021/03/13 07:29:45;;;;;;;1.53;1.43;;;;;;;6.62;74.35;96898.75;5014098;28;20204;-74
2021/03/13 07:32:15;;;;;;;1.40;1.30;;;;;;;6.68;74.81;96894.66;5016217;28;20223;-71
2021/03/13 07:34:43;;;;;;;2.00;1.47;;;;;;;6.76;74.25;96894.63;5015632;28;20239;-71
2021/03/13 07:37:16;;;;;;;2.47;1.20;;;;;;;6.84;73.51;96899.06;5018687;28;20239;-72
2021/03/13 07:39:46;;;;;;;1.20;1.10;;;;;;;6.89;72.56;96888.84;5013363;28;20208;-71
2021/03/13 07:42:16;;;;;;;1.23;1.00;;;;;;;6.92;73.50;96893.78;5015861;28;20204;-71
2021/03/13 07:44:44;;;;;;;2.40;1.20;;;;;;;7.01;72.37;96885.84;5014880;28;20231;-70
2021/03/13 07:47:13;;;;;;;2.67;1.20;;;;;;;7.10;71.82;96880.41;5014517;28;20216;-72
2021/03/13 07:49:41;;;;;;;2.10;1.30;;;;;;;7.11;71.48;96878.59;5014677;28;20295;-71
2021/03/13 07:52:10;;;;;;;2.20;1.40;;;;;;;7.14;71.39;96873.00;5006678;28;20205;-71
2021/03/13 07:54:39;;;;;;;2.60;1.33;;;;;;;7.08;70.55;96866.56;5007713;28;20224;-71
2021/03/13 07:57:07;;;;;;;2.47;1.70;;;;;;;7.01;70.82;96870.88;5010120;28;20204;-71
2021/03/13 07:59:42;;;;;;;1.27;1.27;;;;;;;7.02;70.97;96875.16;5010571;28;20580;-71
2021/03/13 08:02:35;;;;;;;2.13;1.10;;;;;;;7.23;70.33;96876.44;5009996;28;20228;-72
2021/03/13 08:05:06;;;;;;;2.20;1.03;;;;;;;7.25;70.72;96863.91;5013052;28;20201;-71
2021/03/13 08:07:57;;;;;;;1.00;1.00;;;;;;;7.27;68.94;96856.66;5016854;28;20251;-71
2021/03/13 08:10:56;;;;;;;1.43;1.00;;;;;;;7.15;68.74;96858.00;5011825;28;20197;-71
2021/03/13 08:13:52;;;;;;;2.03;1.93;;;;;;;7.26;69.23;96855.00;5011287;28;20274;-71
2021/03/13 08:16:42;;;;;;;1.10;1.00;;;;;;;7.31;69.40;96838.66;5012949;28;20240;-71
2021/03/13 08:19:37;;;;;;;2.27;1.40;;;;;;;7.34;68.52;96835.69;5009821;28;20225;-71
2021/03/13 08:22:11;;;;;;;7.67;1.53;;;;;;;7.57;69.77;96829.66;5010835;28;20413;-71
2021/03/13 08:24:40;;;;;;;1.60;1.20;;;;;;;7.49;67.86;96836.59;5013169;28;20199;-71
2021/03/13 08:27:09;;;;;;;1.07;1.07;;;;;;;7.34;67.64;96825.13;5015221;28;20200;-71
2021/03/13 08:30:22;;;;;;;2.23;1.00;;;;;;;7.45;68.04;96827.41;5007564;28;20954;-70
2021/03/13 08:32:59;;;;;;;1.70;0.97;;;;;;;7.47;67.39;96828.06;5003381;28;20605;-70
2021/03/13 08:35:50;;;;;;;1.30;1.20;;;;;;;7.58;67.19;96833.91;5015414;28;20220;-71
2021/03/13 08:38:34;;;;;;;3.57;1.50;;;;;;;7.68;67.07;96824.81;5011533;28;20239;-70
2021/03/13 08:41:01;;;;;;;1.37;1.13;;;;;;;7.81;65.24;96831.31;5006502;28;20593;-70
2021/03/13 08:43:42;;;;;;;0.87;0.87;;;;;;;7.77;66.05;96817.66;5009021;28;20208;-70
2021/03/13 08:46:41;;;;;;;2.10;1.10;;;;;;;7.86;65.54;96825.53;5003416;28;20268;-70
2021/03/13 08:49:09;;;;;;;1.00;0.90;;;;;;;7.99;65.07;96799.34;5006435;28;20224;-68
2021/03/13 08:51:37;;;;;;;1.60;1.00;;;;;;;8.04;64.78;96791.72;5002966;28;20208;-69
2021/03/13 08:54:04;;;;;;;1.93;1.13;;;;;;;8.28;64.61;96800.44;5006576;28;20212;-70
2021/03/13 08:56:42;;;;;;;0.77;0.77;;;;;;;8.31;63.26;96797.44;5003548;28;20786;-69
2021/03/13 08:59:14;;;;;;;1.97;0.97;;;;;;;8.24;64.66;96770.94;5013092;28;20240;-70
2021/03/13 09:01:42;;;;;;;1.20;1.10;;;;;;;8.33;62.55;96769.06;5010485;28;20217;-70
2021/03/13 09:04:10;;;;;;;0.80;0.80;;;;;;;8.15;62.91;96782.56;5012390;28;20231;-71
2021/03/13 09:06:44;;;;;;;1.33;1.23;;;;;;;8.21;63.18;96758.09;5004978;28;20284;-70
2021/03/13 09:09:12;;;;;;;1.20;1.10;;;;;;;8.22;63.45;96759.75;5013478;28;20712;-70
2021/03/13 09:11:41;;;;;;;3.97;1.33;;;;;;;8.21;64.13;96754.66;5011843;28;20594;-69
2021/03/13 09:14:09;;;;;;;1.63;0.90;;;;;;;8.20;63.13;96748.53;5014453;28;20205;-69
2021/03/13 09:16:37;;;;;;;3.73;1.37;;;;;;;8.33;62.42;96752.38;5011110;28;20299;-69
2021/03/13 09:19:06;;;;;;;1.00;1.00;;;;;;;8.19;63.20;96743.47;5008592;28;20721;-72
2021/03/13 09:21:41;;;;;;;5.23;1.00;;;;;;;8.35;62.05;96735.38;5005778;28;20549;-68
2021/03/13 09:24:11;;;;;;;2.10;1.40;;;;;;;8.40;62.45;96740.13;5009544;28;20204;-71
2021/03/13 09:26:39;;;;;;;0.80;0.80;;;;;;;8.41;61.71;96718.00;5012669;28;20642;-71
2021/03/13 09:29:06;;;;;;;0.97;0.97;;;;;;;8.43;61.77;96715.16;5005929;28;20228;-70
2021/03/13 09:31:34;;;;;;;0.93;0.87;;;;;;;8.39;62.32;96723.44;5010873;28;20215;-70
2021/03/13 09:34:17;;;;;;;1.10;1.10;;;;;;;8.54;61.61;96717.41;5013721;28;20205;-70
2021/03/13 09:37:09;;;;;;;0.80;0.80;;;;;;;8.42;61.38;96718.81;5010313;28;20645;-69
2021/03/13 09:39:37;;;;;;;1.17;0.77;;;;;;;8.34;61.31;96714.44;5010084;28;20203;-71
2021/03/13 09:42:07;;;;;;;1.10;1.07;;;;;;;8.57;61.38;96710.91;5011096;28;20210;-71
2021/03/13 09:44:35;;;;;;;1.20;1.07;;;;;;;8.46;61.14;96706.88;5003841;28;20210;-70
2021/03/13 09:47:19;;;;;;;1.23;1.20;;;;;;;8.48;60.30;96696.94;5003702;28;20691;-70
2021/03/13 09:49:48;;;;;;;2.77;1.23;;;;;;;8.72;60.00;96702.97;5009431;28;20205;-70
2021/03/13 09:52:15;;;;;;;1.60;0.80;;;;;;;8.64;60.36;96696.81;5010507;28;20196;-70
2021/03/13 09:54:43;;;;;;;1.37;1.20;;;;;;;8.58;59.23;96702.00;5006685;28;20224;-70
2021/03/13 09:57:13;;;;;;;1.40;1.23;;;;;;;8.58;60.42;96692.25;5014595;28;20215;-71
2021/03/13 09:59:41;;;;;;;2.07;1.83;;;;;;;8.61;59.18;96686.63;5009840;28;20214;-70
2021/03/13 10:02:09;;;;;;;1.70;0.90;;;;;;;8.62;58.67;96682.13;5006921;28;20633;-69
2021/03/13 10:04:36;;;;;;;1.50;1.00;;;;;;;8.57;59.17;96673.94;5006745;28;20455;-68
2021/03/13 10:07:20;;;;;;;1.30;0.87;;;;;;;8.74;58.69;96662.19;5011314;28;20258;-69
2021/03/13 10:09:52;;;;;;;1.70;1.00;;;;;;;8.82;59.03;96667.34;5013694;28;20209;-70
2021/03/13 10:12:27;;;;;;;1.13;0.80;;;;;;;9.07;58.01;96663.56;5012273;28;20622;-70
2021/03/13 10:14:54;;;;;;;1.33;1.07;;;;;;;9.22;56.70;96666.16;5007932;28;20227;-70
2021/03/13 10:17:22;;;;;;;0.80;0.80;;;;;;;9.25;57.13;96655.22;5005768;28;20239;-69
2021/03/13 10:19:49;;;;;;;0.60;0.60;;;;;;;9.33;56.07;96649.78;5000042;28;20218;-69
2021/03/13 10:22:20;;;;;;;2.17;1.10;;;;;;;9.35;55.86;96649.59;5005585;28;21146;-70
2021/03/13 10:24:50;;;;;;;1.40;1.30;;;;;;;9.24;55.94;96637.72;5009068;28;20231;-69
2021/03/13 10:27:23;;;;;;;0.90;0.90;;;;;;;9.09;56.51;96641.25;5005947;28;20620;-69
2021/03/13 10:29:56;;;;;;;1.40;1.20;;;;;;;9.30;56.33;96628.22;5000953;28;20205;-67
2021/03/13 10:32:25;;;;;;;1.10;1.00;;;;;;;9.37;54.67;96629.88;5000686;28;20589;-69
2021/03/13 10:35:06;;;;;;;1.77;0.93;;;;;;;9.33;54.87;96618.06;5010234;28;20229;-70
2021/03/13 10:37:47;;;;;;;1.53;0.90;;;;;;;9.20;55.29;96626.69;5009534;28;20690;-70
2021/03/13 10:40:33;;;;;;;0.80;0.80;;;;;;;9.17;54.15;96616.50;5011951;28;20204;-70
2021/03/13 10:43:19;;;;;;;1.13;1.03;;;;;;;9.32;55.27;96616.44;5010725;28;20205;-69
2021/03/13 10:46:00;;;;;;;0.67;0.67;;;;;;;9.40;55.19;96624.22;5012810;28;20207;-69
2021/03/13 10:48:29;;;;;;;1.03;1.00;;;;;;;9.52;53.96;96621.88;5010232;28;20760;-70
2021/03/13 10:50:57;;;;;;;0.80;0.80;;;;;;;9.56;53.88;96612.56;5010882;28;20204;-70
2021/03/13 10:53:32;;;;;;;1.10;0.90;;;;;;;9.60;54.37;96614.81;5014861;28;20564;-69
2021/03/13 10:56:00;;;;;;;0.63;0.63;;;;;;;9.47;52.81;96592.56;5006799;28;20562;-70
2021/03/13 10:58:29;;;;;;;0.80;0.80;;;;;;;9.51;52.49;96599.09;5001432;28;20224;-70
2021/03/13 11:00:58;;;;;;;1.17;0.70;;;;;;;9.68;52.24;96596.97;5009488;28;20200;-69
2021/03/13 11:03:25;;;;;;;2.40;0.70;;;;;;;9.53;52.58;96594.44;5003448;28;20213;-68
2021/03/13 11:05:53;;;;;;;2.90;1.13;;;;;;;9.56;52.35;96593.25;5007634;28;20659;-69
2021/03/13 11:08:21;;;;;;;2.57;1.33;;;;;;;9.55;53.82;96586.31;5005255;28;20220;-69
2021/03/13 11:10:49;;;;;;;1.20;1.10;;;;;;;9.54;50.44;96587.31;5003960;28;20341;-70
2021/03/13 11:13:16;;;;;;;0.73;0.73;;;;;;;9.52;50.05;96605.22;5009333;28;20709;-70
2021/03/13 11:15:44;;;;;;;1.57;1.20;;;;;;;9.54;50.35;96603.19;5012170;28;20807;-70
2021/03/13 11:18:11;;;;;;;0.90;0.80;;;;;;;9.66;49.97;96585.78;5010818;28;20581;-70
2021/03/13 11:20:39;;;;;;;1.60;0.87;;;;;;;9.75;48.88;96594.38;5013562;28;20635;-69
2021/03/13 11:23:06;;;;;;;2.13;0.80;;;;;;;9.74;47.75;96576.06;5006124;28;20209;-69
2021/03/13 11:25:33;;;;;;;0.77;0.77;;;;;;;9.71;48.54;96579.91;5009340;28;20200;-69
2021/03/13 11:28:00;;;;;;;1.40;0.83;;;;;;;9.72;48.31;96581.56;5014003;28;20351;-68
2021/03/13 11:30:28;;;;;;;1.10;1.00;;;;;;;9.67;49.47;96591.91;5017075;28;20204;-69
2021/03/13 11:32:56;;;;;;;1.63;0.87;;;;;;;9.61;48.62;96585.53;5015405;28;20204;-69
2021/03/13 11:35:23;;;;;;;1.43;1.07;;;;;;;9.70;48.78;96589.66;5016673;28;20232;-70
2021/03/13 11:37:52;;;;;;;1.20;0.80;;;;;;;9.66;49.06;96580.50;5012761;28;20724;-69
2021/03/13 11:40:20;;;;;;;1.70;0.80;;;;;;;9.73;50.09;96562.03;5014330;28;21086;-68
2021/03/13 11:42:48;;;;;;;0.97;0.87;;;;;;;9.89;49.27;96571.50;5001944;28;20230;-69
2021/03/13 11:45:15;;;;;;;0.93;0.67;;;;;;;9.92;49.58;96560.50;5012237;28;20700;-69
2021/03/13 11:47:42;;;;;;;1.23;0.70;;;;;;;9.82;49.64;96558.22;4999698;28;20234;-69
2021/03/13 11:50:13;;;;;;;2.13;1.83;;;;;;;9.77;49.99;96555.34;5008757;28;20282;-69
2021/03/13 11:52:40;;;;;;;1.03;1.03;;;;;;;9.63;49.44;96556.22;5010113;28;20212;-69
2021/03/13 11:55:09;;;;;;;0.67;0.67;;;;;;;9.61;51.24;96539.75;5007385;28;20221;-69